METAR Data
IDs: Format: Raw Decoded Include TAF

Data at: 0533 UTC 20 Oct 2018

PATO 200511Z AUTO 25005KT 7SM -RA SCT004 OVC034 03/02 A2916 RMK AO2 P0000 T00330022 TSNO
PATO 200453Z AUTO VRB03KT 7SM -RA BKN004 OVC034 03/02 A2914 RMK AO2 SLP869 P0002 T00280022 TSNO
PATO 200450Z AUTO VRB03KT 8SM -RA BKN003 OVC036 03/02 A2914 RMK AO2 P0002 TSNO
PATO 200438Z AUTO 26003KT 8SM -RA SCT003 OVC035 03/02 A2913 RMK AO2 P0002 T00280022 TSNO
PATO 200353Z AUTO 00000KT 5SM -RA BR OVC033 03/02 A2909 RMK AO2 SLP852 P0006 T00280022 TSNO
PATO 200342Z AUTO 00000KT 6SM RA BR OVC031 03/02 A2909 RMK AO2 P0005 T00280022 TSNO
PATO 200253Z AUTO 30003KT 5SM -RA BR SCT003 BKN017 OVC025 03/02 A2905 RMK AO2 SLP837 P0004 60017 T00280022 53027 TSNO
PATO 200231Z AUTO 00000KT 6SM -RA BR FEW004 OVC024 03/02 A2903 RMK AO2 P0002 T00280022 TSNO
PATO 200210Z AUTO 00000KT 5SM -RA BR BKN024 OVC036 03/02 A2902 RMK AO2 P0001 T00280022 TSNO
PATO 200153Z AUTO 00000KT 7SM -RA FEW022 SCT030 OVC039 03/02 A2901 RMK AO2 SLP825 P0004 T00280022 TSNO
PATO 200053Z AUTO 00000KT 4SM -RA BR OVC034 03/02 A2900 RMK AO2 SLP819 P0009 T00280022 TSNO
PATO 192353Z AUTO 00000KT 6SM -RA BR OVC031 03/02 A2897 RMK AO2 SLP810 P0011 60092 T00280022 10044 20022 51016 TSNO
PATO 192326Z AUTO 00000KT 5SM RA BR FEW019 OVC031 03/02 A2896 RMK AO2 P0007 T00280017 TSNO
PATO 192253Z AUTO 00000KT 4SM RA BR OVC028 02/02 A2895 RMK AO2 SLP805 P0015 T00220017 TSNO
PATO 192246Z AUTO 00000KT 2 1/2SM RA BR OVC028 02/02 A2895 RMK AO2 P0014 T00220017 TSNO
PATO 192232Z AUTO 00000KT 2 1/2SM RA BR OVC030 02/02 A2895 RMK AO2 P0010 T00220017 TSNO
PATO 192153Z AUTO 00000KT 4SM RA BR OVC034 02/01 A2894 RMK AO2 SLP799 P0012 T00220011 TSNO
PATO 192109Z AUTO 00000KT 3SM RA BR OVC030 02/02 A2892 RMK AO2 P0004 T00220017 TSNO
PATO 192053Z AUTO 00000KT 2SM RA BR OVC028 02/02 A2892 RMK AO2 SLP793 P0021 60054 T00220017 56007 TSNO
PATO 192039Z AUTO 00000KT 4SM RA BR OVC029 02/01 A2892 RMK AO2 P0016 T00220011 TSNO
PATO 192021Z AUTO 00000KT 4SM RA BR OVC030 02/01 A2892 RMK AO2 P0010 T00220011 TSNO
PATO 192005Z AUTO 00000KT 2 1/2SM +RA BR FEW010 OVC031 02/01 A2892 RMK AO2 P0004 T00220011 TSNO
PATO 192000Z AUTO 00000KT 4SM RA BR FEW011 OVC029 03/02 A2892 RMK AO2 P0003 T00280017 TSNO
PATO 191953Z AUTO 00000KT 2 1/2SM RA BR FEW011 OVC027 03/01 A2892 RMK AO2 SLP795 P0016 T00280011 TSNO
PATO 191941Z AUTO 00000KT 2 1/2SM RA BR BKN012 OVC025 03/02 A2893 RMK AO2 P0013 T00280017 TSNO
PATO 191933Z AUTO 00000KT 2 1/2SM RA BR SCT012 OVC023 03/02 A2893 RMK AO2 P0011 T00330022 TSNO
PATO 191930Z AUTO 00000KT 2 1/2SM RA BR BKN012 OVC023 03/02 A2893 RMK AO2 P0010 T00330022 TSNO
PATO 191923Z AUTO 00000KT 3SM RA BR FEW007 OVC012 03/02 A2893 RMK AO2 P0008 T00330022 TSNO
PATO 191853Z AUTO 00000KT 2SM RA BR SCT008 OVC014 04/03 A2894 RMK AO2 SLP800 P0017 T00390033 TSNO
PATO 191825Z AUTO 28003KT 2 1/2SM RA BR FEW005 OVC014 04/03 A2893 RMK AO2 P0010 T00390033 TSNO
PATO 191818Z AUTO VRB04KT 2SM RA BR FEW005 BKN017 OVC023 04/03 A2893 RMK AO2 P0008 T00390033 TSNO
PATO 191810Z AUTO 27005KT 1 3/4SM +RA BR SCT012 BKN018 OVC023 04/03 A2894 RMK AO2 P0005 T00390033 TSNO
PATO 191753Z AUTO 28003KT 2 1/2SM RA BR BKN011 BKN016 OVC026 04/03 A2895 RMK AO2 SLP804 P0007 60026 T00440033 10050 20039 56062 TSNO
PATO 191710Z AUTO 00000KT 5SM -RA BR FEW003 BKN014 OVC026 04/03 A2898 RMK AO2 P0002 T00390033 TSNO
PATO 191653Z AUTO 00000KT 3SM RA BR SCT018 OVC027 04/04 A2900 RMK AO2 SLP822 P0016 T00440039 TSNO
PATO 191639Z AUTO 00000KT 3SM +RA BR FEW018 OVC029 04/04 A2902 RMK AO2 P0011 T00440039 TSNO
PATO 191553Z AUTO 27003KT 9SM -RA OVC041 04/03 A2905 RMK AO2 PRESFR SLP836 P0001 T00440033 TSNO
PATO 191453Z AUTO 27004KT 9SM -RA OVC043 04/03 A2913 RMK AO2 PRESFR SLP866 P0001 60002 T00390033 56089 TSNO
PATO 191419Z AUTO 30003KT 10SM -RA FEW003 BKN042 OVC060 04/03 A2919 RMK AO2 PRESFR P0000 T00390033 TSNO $
PATO 191410Z AUTO 27003KT 2SM -RA BR SCT002 BKN040 OVC060 04/04 A2920 RMK AO2 P0000 T00390039 TSNO $
PATO 191353Z AUTO 00000KT 10SM -RA FEW002 FEW042 OVC055 04/03 A2922 RMK AO2 PRESFR SLP894 P0001 T00390033 TSNO $
PATO 191338Z AUTO 00000KT 4SM -RA BR FEW002 BKN044 OVC055 04/04 A2924 RMK AO2 PRESFR P0001 T00440039 TSNO $
PATO 191312Z AUTO 30003KT 2SM -RA BR FEW002 OVC029 04/04 A2928 RMK AO2 PRESFR P0001 T00440039 TSNO $
PATO 191253Z AUTO 00000KT 8SM -RA OVC045 04/04 A2932 RMK AO2 PRESFR SLP928 P0000 T00440039 TSNO $
PATO 191205Z AUTO 00000KT 10SM -RA SCT004 OVC055 04/04 A2938 RMK AO2 PRESFR P0000 T00440039 TSNO $
PATO 191153Z AUTO 00000KT 10SM -RA BKN003 OVC055 04/04 A2940 RMK AO2 PRESFR SLP956 P0000 60044 70121 T00440039 10061 20044 58075 TSNO $
PATO 191137Z AUTO 31003KT 10SM -RA BKN003 OVC045 05/04 A2943 RMK AO2 PRESFR P0000 T00500039 TSNO $
PATO 191126Z AUTO 28003KT 10SM -RA SCT003 OVC045 05/04 A2945 RMK AO2 PRESFR P0000 T00500039 TSNO $
PATO 191053Z AUTO 00000KT 9SM -RA OVC043 05/04 A2949 RMK AO2 PRESFR SLP986 P0002 T00500044 TSNO $
PATO 190953Z AUTO 12003KT 5SM RA BR OVC037 06/04 A2955 RMK AO2 PRESFR SLP008 P0008 T00560044 TSNO $
PATO 190853Z AUTO VRB04KT 5SM RA BR OVC033 06/04 A2962 RMK AO2 SLP030 P0012 60034 T00610044 400830056 58046 TSNO $
PATO 190816Z AUTO 5SM RA BR FEW023 OVC031 06/04 A2965 RMK AO2 P0005 T00610039 TSNO $
PATO 190800Z AUTO 4SM RA BR OVC029 06/04 A2967 RMK AO2 P0002 T00610039 TSNO $
PATO 190753Z AUTO 11011G22KT 5SM RA BR FEW023 OVC032 06/04 A2967 RMK AO2 SLP049 P0012 T00610039 TSNO $
PATO 190653Z AUTO 15008G16KT 4SM RA BR BKN030 OVC036 06/04 A2972 RMK AO2 SLP064 P0010 T00560039 TSNO $
PATO 190553Z AUTO 12005G15KT 6SM RA FEW025 OVC032 06/03 A2976 RMK AO2 SLP077 P0010 60040 T00610033 10083 20061 57029 TSNO $
PATO 190453Z AUTO 13009G20KT 5SM RA FEW026 OVC035 07/04 A2979 RMK AO2 SLP087 P0007 T00670039 TSNO $
PATO 190431Z AUTO 14010G23KT 6SM RA SCT027 OVC034 07/04 A2979 RMK AO2 P0004 T00720039 TSNO $
PATO 190353Z AUTO 12009G20KT 090V150 10SM -RA BKN028 OVC041 08/04 A2981 RMK AO2 PK WND 14027/0310 SLP096 P0003 T00780039 TSNO $
PATO 190253Z AUTO 15009G24KT 120V180 5SM -RA BKN028 OVC032 07/04 A2984 RMK AO2 RAE21B37 SLP106 P0001 60020 T00720039 56022 TSNO $
PATO 190249Z AUTO 14010G24KT 6SM -RA OVC030 07/04 A2985 RMK AO2 RAE21B37 P0000 TSNO $
PATO 190153Z AUTO 14009G19KT 090V180 10SM -RA FEW021 OVC028 07/04 A2988 RMK AO2 SLP118 P0014 T00720044 TSNO $
PATO 190139Z AUTO 10008G18KT 060V150 4SM RA BR BKN028 OVC033 07/04 A2988 RMK AO2 P0014 T00670044 TSNO $
PATO 190117Z AUTO 14005KT 2SM RA BR FEW026 OVC031 06/04 A2990 RMK AO2 P0008 T00610039 TSNO $
PATO 190110Z AUTO 14008G18KT 3SM +RA OVC033 07/03 A2990 RMK AO2 P0006 T00670033 TSNO $
PATO 190053Z AUTO 2 1/2SM RA SCT022 OVC032 07/04 A2991 RMK AO2 PK WND 13029/0011 RAE09B33 SLP128 P0005 T00720039 TSNO $
PATO 190051Z AUTO 2 1/2SM RA SCT022 OVC032 07/04 A2990 RMK AO2 PK WND 13029/0011 RAE09B33 P0004 TSNO $
PATO 182353Z AUTO 14010G25KT 5SM -RA BKN023 OVC031 07/04 A2992 RMK AO2 SLP132 P0010 60027 T00720044 10078 20056 56016 TSNO $
PATO 182321Z AUTO 13007G22KT 080V170 3SM -RA BKN025 OVC031 07/04 A2993 RMK AO2 P0006 T00720044 TSNO $
PATO 182253Z AUTO 13011G22KT 100V170 2 1/2SM RA BR FEW018 OVC031 07/04 A2994 RMK AO2 VIS 2 1/2V3 SLP138 P0008 T00670044 TSNO $
PATO 182251Z AUTO 13007G22KT 070V170 3SM RA BR FEW018 OVC031 07/04 A2994 RMK AO2 P0007 TSNO $
PATO 182234Z AUTO 15008G20KT 120V180 2 1/2SM +RA BR FEW018 SCT026 OVC032 07/04 A2995 RMK AO2 P0004 T00670044 TSNO $
PATO 182227Z AUTO 14009G20KT 5SM -RA BR BKN025 OVC034 07/04 A2995 RMK AO2 P0003 T00670044 TSNO $
PATO 182214Z AUTO 12008G17KT 3SM -RA BR FEW021 BKN030 OVC036 06/04 A2995 RMK AO2 P0002 T00610039 TSNO $
PATO 182207Z AUTO 14008G17KT 2 1/2SM -RA BR FEW022 BKN029 OVC035 06/04 A2995 RMK AO2 P0001 T00610039 TSNO $
PATO 182156Z AUTO 15007G17KT 110V180 3SM RA BKN029 OVC035 06/03 A2996 RMK AO2 P0000 T00610033 TSNO $
PATO 182153Z AUTO 15007KT 2 1/2SM RA BR SCT027 OVC033 06/03 A2996 RMK AO2 SLP148 P0007 T00560033 TSNO $
PATO 182150Z AUTO 15008KT 2 1/2SM RA BR FEW018 BKN029 OVC035 06/03 A2997 RMK AO2 P0006 TSNO $
PATO 182053Z AUTO 15008G18KT 8SM -RA OVC039 06/03 A2998 RMK AO2 SLP151 P0002 60002 T00610033 51009 TSNO $
PATO 181953Z AUTO 15009G21KT 8SM -RA FEW024 BKN036 OVC043 06/04 A2997 RMK AO2 RAE05B40 SLP150 P0000 T00610039 TSNO $
PATO 181853Z AUTO 16009G18KT 120V180 6SM -RA BR SCT027 OVC036 06/04 A2996 RMK AO2 RAE11B40 SLP145 P0000 T00560039 TSNO
PATO 181753Z AUTO 15007G16KT 110V180 7SM -RA OVC036 06/04 A2995 RMK AO2 RAB12 SLP142 P0000 60010 T00610039 10072 20056 53012 TSNO